sensor_id;sensor_type;location;lat;lon;timestamp;pressure;altitude;pressure_sealevel;temperature;humidity
31044;BME280;17710;52.520;13.352;2023-02-14T00:02:15;103432.28;;;12.67;46.36
31044;BME280;17710;52.520;13.352;2023-02-14T00:04:41;103436.72;;;12.22;47.07
31044;BME280;17710;52.520;13.352;2023-02-14T00:07:10;103429.66;;;12.52;46.69
31044;BME280;17710;52.520;13.352;2023-02-14T00:09:36;103429.66;;;12.58;46.73
31044;BME280;17710;52.520;13.352;2023-02-14T00:12:04;103429.66;;;12.46;46.57
31044;BME280;17710;52.520;13.352;2023-02-14T00:14:33;103437.63;;;12.50;46.27
31044;BME280;17710;52.520;13.352;2023-02-14T00:17:17;103426.13;;;12.44;46.43
31044;BME280;17710;52.520;13.352;2023-02-14T00:19:43;103434.09;;;12.25;46.51
31044;BME280;17710;52.520;13.352;2023-02-14T00:22:10;103434.94;;;11.79;47.56
31044;BME280;17710;52.520;13.352;2023-02-14T00:24:36;103431.41;;;11.80;47.58
31044;BME280;17710;52.520;13.352;2023-02-14T00:27:02;103431.41;;;11.92;47.48
31044;BME280;17710;52.520;13.352;2023-02-14T00:29:31;103427.91;;;12.16;47.05
31044;BME280;17710;52.520;13.352;2023-02-14T00:31:59;103432.28;;;11.82;47.77
31044;BME280;17710;52.520;13.352;2023-02-14T00:34:26;103424.38;;;12.06;47.05
31044;BME280;17710;52.520;13.352;2023-02-14T00:36:53;103427.03;;;12.18;46.68
31044;BME280;17710;52.520;13.352;2023-02-14T00:39:20;103419.06;;;12.43;46.31
31044;BME280;17710;52.520;13.352;2023-02-14T00:41:46;103415.53;;;12.37;46.40
31044;BME280;17710;52.520;13.352;2023-02-14T00:44:13;103424.34;;;12.55;46.30
31044;BME280;17710;52.520;13.352;2023-02-14T00:46:40;103419.06;;;12.52;46.43
31044;BME280;17710;52.520;13.352;2023-02-14T00:49:08;103427.91;;;12.11;46.63
31044;BME280;17710;52.520;13.352;2023-02-14T00:51:35;103431.44;;;11.98;47.34
31044;BME280;17710;52.520;13.352;2023-02-14T00:54:01;103439.38;;;12.00;47.76
31044;BME280;17710;52.520;13.352;2023-02-14T00:56:28;103424.34;;;11.74;47.79
31044;BME280;17710;52.520;13.352;2023-02-14T00:58:54;103419.06;;;11.91;48.01
31044;BME280;17710;52.520;13.352;2023-02-14T01:01:21;103421.69;;;11.74;48.27
31044;BME280;17710;52.520;13.352;2023-02-14T01:03:47;103417.22;;;11.72;47.78
31044;BME280;17710;52.520;13.352;2023-02-14T01:06:15;103414.59;;;11.73;48.48
31044;BME280;17710;52.520;13.352;2023-02-14T01:08:41;103421.69;;;11.86;47.80
31044;BME280;17710;52.520;13.352;2023-02-14T01:11:09;103408.38;;;11.65;47.75
31044;BME280;17710;52.520;13.352;2023-02-14T01:13:36;103410.09;;;11.49;48.68
31044;BME280;17710;52.520;13.352;2023-02-14T01:16:06;103407.47;;;11.52;48.43
31044;BME280;17710;52.520;13.352;2023-02-14T01:18:33;103405.66;;;11.42;48.67
31044;BME280;17710;52.520;13.352;2023-02-14T01:21:09;103404.91;;;11.80;47.97
31044;BME280;17710;52.520;13.352;2023-02-14T01:23:37;103401.38;;;11.78;47.91
31044;BME280;17710;52.520;13.352;2023-02-14T01:26:06;103403.97;;;11.72;47.93
31044;BME280;17710;52.520;13.352;2023-02-14T01:28:33;103391.59;;;11.71;48.36
31044;BME280;17710;52.520;13.352;2023-02-14T01:31:05;103389.75;;;11.36;49.33
31044;BME280;17710;52.520;13.352;2023-02-14T01:33:32;103398.72;;;11.84;47.95
31044;BME280;17710;52.520;13.352;2023-02-14T01:35:58;103400.50;;;11.80;47.82
31044;BME280;17710;52.520;13.352;2023-02-14T01:38:25;103393.44;;;12.04;47.71
31044;BME280;17710;52.520;13.352;2023-02-14T01:40:53;103393.44;;;12.22;46.70
31044;BME280;17710;52.520;13.352;2023-02-14T01:43:20;103385.47;;;12.08;46.13
31044;BME280;17710;52.520;13.352;2023-02-14T01:45:46;103389.91;;;12.23;46.08
31044;BME280;17710;52.520;13.352;2023-02-14T01:48:13;103386.38;;;12.13;46.37
31044;BME280;17710;52.520;13.352;2023-02-14T01:50:42;103373.09;;;12.28;46.27
31044;BME280;17710;52.520;13.352;2023-02-14T01:53:13;103382.81;;;12.34;46.13
31044;BME280;17710;52.520;13.352;2023-02-14T01:55:43;103378.41;;;11.95;46.60
31044;BME280;17710;52.520;13.352;2023-02-14T01:58:14;103376.66;;;12.14;46.53
31044;BME280;17710;52.520;13.352;2023-02-14T02:00:43;103382.84;;;12.17;46.53
31044;BME280;17710;52.520;13.352;2023-02-14T02:03:29;103386.38;;;12.13;46.41
31044;BME280;17710;52.520;13.352;2023-02-14T02:06:02;103381.94;;;12.30;45.88
31044;BME280;17710;52.520;13.352;2023-02-14T02:08:33;103376.63;;;12.35;45.77
31044;BME280;17710;52.520;13.352;2023-02-14T02:11:02;103381.94;;;12.30;45.86
31044;BME280;17710;52.520;13.352;2023-02-14T02:13:30;103381.97;;;12.18;46.12
31044;BME280;17710;52.520;13.352;2023-02-14T02:16:06;103384.63;;;12.26;45.86
31044;BME280;17710;52.520;13.352;2023-02-14T02:18:44;103384.63;;;12.06;46.70
31044;BME280;17710;52.520;13.352;2023-02-14T02:24:25;103384.59;;;11.95;47.22
31044;BME280;17710;52.520;13.352;2023-02-14T02:30:20;103389.03;;;11.92;47.71
31044;BME280;17710;52.520;13.352;2023-02-14T02:33:15;103391.66;;;12.16;46.38
31044;BME280;17710;52.520;13.352;2023-02-14T02:36:06;103389.91;;;12.05;46.76
31044;BME280;17710;52.520;13.352;2023-02-14T02:38:50;103386.38;;;11.84;47.50
31044;BME280;17710;52.520;13.352;2023-02-14T02:41:29;103383.69;;;11.77;47.68
31044;BME280;17710;52.520;13.352;2023-02-14T02:44:02;103385.41;;;11.69;48.23
31044;BME280;17710;52.520;13.352;2023-02-14T02:46:38;103386.41;;;12.01;47.91
31044;BME280;17710;52.520;13.352;2023-02-14T02:49:22;103384.53;;;11.53;47.95
31044;BME280;17710;52.520;13.352;2023-02-14T02:52:16;103384.53;;;11.70;48.06
31044;BME280;17710;52.520;13.352;2023-02-14T02:55:05;103384.53;;;11.65;48.41
31044;BME280;17710;52.520;13.352;2023-02-14T02:57:38;103389.00;;;11.75;48.09
31044;BME280;17710;52.520;13.352;2023-02-14T03:00:08;103380.13;;;11.66;48.59
31044;BME280;17710;52.520;13.352;2023-02-14T03:02:38;103381.88;;;11.48;48.75
31044;BME280;17710;52.520;13.352;2023-02-14T03:05:20;103376.59;;;11.61;48.67
31044;BME280;17710;52.520;13.352;2023-02-14T03:07:48;103379.31;;;11.86;48.25
31044;BME280;17710;52.520;13.352;2023-02-14T03:10:18;103380.16;;;11.78;47.88
31044;BME280;17710;52.520;13.352;2023-02-14T03:13:03;103374.81;;;11.47;48.96
31044;BME280;17710;52.520;13.352;2023-02-14T03:15:40;103380.16;;;11.82;48.48
31044;BME280;17710;52.520;13.352;2023-02-14T03:18:18;103374.88;;;11.96;48.70
31044;BME280;17710;52.520;13.352;2023-02-14T03:20:53;103380.19;;;11.99;47.84
31044;BME280;17710;52.520;13.352;2023-02-14T03:23:24;103381.88;;;11.70;48.36
31044;BME280;17710;52.520;13.352;2023-02-14T03:26:01;103381.91;;;11.67;48.38
31044;BME280;17710;52.520;13.352;2023-02-14T03:28:36;103379.25;;;11.67;48.52
31044;BME280;17710;52.520;13.352;2023-02-14T03:31:13;103377.47;;;11.59;48.72
31044;BME280;17710;52.520;13.352;2023-02-14T03:33:49;103373.94;;;11.61;48.80
31044;BME280;17710;52.520;13.352;2023-02-14T03:36:19;103372.22;;;11.76;48.76
31044;BME280;17710;52.520;13.352;2023-02-14T03:38:53;103374.84;;;11.73;48.67
31044;BME280;17710;52.520;13.352;2023-02-14T03:41:25;103372.19;;;11.61;48.90
31044;BME280;17710;52.520;13.352;2023-02-14T03:43:55;103363.34;;;11.61;49.37
31044;BME280;17710;52.520;13.352;2023-02-14T03:46:25;103377.47;;;11.69;49.18
31044;BME280;17710;52.520;13.352;2023-02-14T03:48:55;103377.44;;;11.50;49.59
31044;BME280;17710;52.520;13.352;2023-02-14T03:51:24;103379.28;;;11.77;49.17
31044;BME280;17710;52.520;13.352;2023-02-14T03:53:55;103376.59;;;11.64;48.96
31044;BME280;17710;52.520;13.352;2023-02-14T03:56:28;103379.31;;;11.85;48.12
31044;BME280;17710;52.520;13.352;2023-02-14T03:59:02;103372.22;;;11.78;47.79
31044;BME280;17710;52.520;13.352;2023-02-14T04:01:34;103369.50;;;11.58;49.24
31044;BME280;17710;52.520;13.352;2023-02-14T04:04:03;103368.63;;;11.56;49.46
31044;BME280;17710;52.520;13.352;2023-02-14T04:06:31;103373.03;;;11.52;49.51
31044;BME280;17710;52.520;13.352;2023-02-14T04:08:59;103364.22;;;11.56;49.34
31044;BME280;17710;52.520;13.352;2023-02-14T04:11:26;103367.75;;;11.57;48.86
31044;BME280;17710;52.520;13.352;2023-02-14T04:13:52;103366.88;;;11.70;48.74
31044;BME280;17710;52.520;13.352;2023-02-14T04:16:19;103371.28;;;11.57;48.52
31044;BME280;17710;52.520;13.352;2023-02-14T04:18:45;103365.13;;;11.66;48.50
31044;BME280;17710;52.520;13.352;2023-02-14T04:21:44;103361.53;;;11.43;49.38
31044;BME280;17710;52.520;13.352;2023-02-14T04:24:11;103363.34;;;11.64;48.54
31044;BME280;17710;52.520;13.352;2023-02-14T04:26:38;103358.88;;;11.34;48.88
31044;BME280;17710;52.520;13.352;2023-02-14T04:29:18;103366.00;;;11.54;48.94
31044;BME280;17710;52.520;13.352;2023-02-14T04:31:45;103364.16;;;11.34;49.15
31044;BME280;17710;52.520;13.352;2023-02-14T04:34:12;103362.41;;;11.33;49.19
31044;BME280;17710;52.520;13.352;2023-02-14T04:36:38;103367.75;;;11.58;48.92
31044;BME280;17710;52.520;13.352;2023-02-14T04:39:05;103362.44;;;11.55;48.78
31044;BME280;17710;52.520;13.352;2023-02-14T04:41:32;103368.63;;;11.47;48.73
31044;BME280;17710;52.520;13.352;2023-02-14T04:43:59;103359.81;;;11.58;48.76
31044;BME280;17710;52.520;13.352;2023-02-14T04:46:25;103350.09;;;11.64;48.36
31044;BME280;17710;52.520;13.352;2023-02-14T04:48:51;103350.97;;;11.52;48.77
31044;BME280;17710;52.520;13.352;2023-02-14T04:51:18;103360.75;;;11.82;48.16
31044;BME280;17710;52.520;13.352;2023-02-14T04:53:44;103349.22;;;11.65;48.38
31044;BME280;17710;52.520;13.352;2023-02-14T04:56:10;103352.81;;;12.05;47.59
31044;BME280;17710;52.520;13.352;2023-02-14T04:58:38;103354.59;;;12.00;47.44
31044;BME280;17710;52.520;13.352;2023-02-14T05:01:04;103357.22;;;11.80;48.06
31044;BME280;17710;52.520;13.352;2023-02-14T05:03:31;103350.13;;;11.73;48.23
31044;BME280;17710;52.520;13.352;2023-02-14T05:05:57;103351.91;;;11.90;47.98
31044;BME280;17710;52.520;13.352;2023-02-14T05:08:24;103343.91;;;11.63;48.37
31044;BME280;17710;52.520;13.352;2023-02-14T05:10:50;103356.28;;;11.70;48.35
31044;BME280;17710;52.520;13.352;2023-02-14T05:13:16;103341.31;;;12.04;47.27
31044;BME280;17710;52.520;13.352;2023-02-14T05:15:44;103343.06;;;12.08;47.51
31044;BME280;17710;52.520;13.352;2023-02-14T05:18:11;103349.25;;;11.77;48.39
31044;BME280;17710;52.520;13.352;2023-02-14T05:20:37;103344.88;;;11.85;48.15
31044;BME280;17710;52.520;13.352;2023-02-14T05:23:04;103338.66;;;11.77;48.84
31044;BME280;17710;52.520;13.352;2023-02-14T05:25:31;103342.13;;;11.56;49.51
31044;BME280;17710;52.520;13.352;2023-02-14T05:27:57;103333.31;;;11.51;48.49
31044;BME280;17710;52.520;13.352;2023-02-14T05:30:24;103331.59;;;11.89;47.67
31044;BME280;17710;52.520;13.352;2023-02-14T05:32:53;103328.97;;;12.08;47.18
31044;BME280;17710;52.520;13.352;2023-02-14T05:35:19;103330.72;;;11.95;47.61
31044;BME280;17710;52.520;13.352;2023-02-14T05:37:46;103339.56;;;11.85;47.73
31044;BME280;17710;52.520;13.352;2023-02-14T05:40:12;103334.28;;;11.74;48.17
31044;BME280;17710;52.520;13.352;2023-02-14T05:42:40;103338.69;;;11.86;47.88
31044;BME280;17710;52.520;13.352;2023-02-14T05:45:07;103335.00;;;11.23;49.35
31044;BME280;17710;52.520;13.352;2023-02-14T05:47:34;103333.28;;;11.34;49.32
31044;BME280;17710;52.520;13.352;2023-02-14T05:50:06;103332.38;;;11.29;49.39
31044;BME280;17710;52.520;13.352;2023-02-14T05:52:34;103326.25;;;11.56;48.87
31044;BME280;17710;52.520;13.352;2023-02-14T05:55:02;103329.78;;;11.56;49.04
31044;BME280;17710;52.520;13.352;2023-02-14T05:57:29;103330.63;;;11.37;49.02
31044;BME280;17710;52.520;13.352;2023-02-14T05:59:57;103339.53;;;11.82;48.76
31044;BME280;17710;52.520;13.352;2023-02-14T06:02:29;103318.38;;;11.91;48.17
31044;BME280;17710;52.520;13.352;2023-02-14T06:04:56;103329.84;;;11.85;48.44
31044;BME280;17710;52.520;13.352;2023-02-14T06:07:24;103328.97;;;12.00;47.81
31044;BME280;17710;52.520;13.352;2023-02-14T06:09:51;103329.84;;;11.93;47.86
31044;BME280;17710;52.520;13.352;2023-02-14T06:12:17;103337.78;;;11.84;48.30
31044;BME280;17710;52.520;13.352;2023-02-14T06:14:44;103335.13;;;11.90;48.00
31044;BME280;17710;52.520;13.352;2023-02-14T06:17:10;103333.38;;;11.93;47.80
31044;BME280;17710;52.520;13.352;2023-02-14T06:19:36;103334.25;;;11.76;48.04
31044;BME280;17710;52.520;13.352;2023-02-14T06:22:03;103336.91;;;11.77;48.13
31044;BME280;17710;52.520;13.352;2023-02-14T06:24:31;103344.84;;;11.76;48.58
31044;BME280;17710;52.520;13.352;2023-02-14T06:26:57;103337.75;;;11.59;49.12
31044;BME280;17710;52.520;13.352;2023-02-14T06:29:24;103336.84;;;11.56;48.89
31044;BME280;17710;52.520;13.352;2023-02-14T06:31:50;103343.06;;;11.61;48.69
31044;BME280;17710;52.520;13.352;2023-02-14T06:34:17;103336.00;;;11.62;48.62
31044;BME280;17710;52.520;13.352;2023-02-14T06:36:45;103340.38;;;11.52;48.84
31044;BME280;17710;52.520;13.352;2023-02-14T06:39:14;103337.81;;;11.85;48.38
31044;BME280;17710;52.520;13.352;2023-02-14T06:41:41;103333.31;;;11.58;48.99
31044;BME280;17710;52.520;13.352;2023-02-14T06:44:11;103340.41;;;11.70;48.44
31044;BME280;17710;52.520;13.352;2023-02-14T06:46:37;103329.84;;;11.90;47.94
31044;BME280;17710;52.520;13.352;2023-02-14T06:49:04;103337.72;;;11.63;48.49
31044;BME280;17710;52.520;13.352;2023-02-14T06:51:30;103344.88;;;11.86;48.29
31044;BME280;17710;52.520;13.352;2023-02-14T06:53:57;103334.22;;;11.70;48.31
31044;BME280;17710;52.520;13.352;2023-02-14T06:56:23;103335.16;;;11.91;48.13
31044;BME280;17710;52.520;13.352;2023-02-14T06:58:50;103339.53;;;11.76;48.10
31044;BME280;17710;52.520;13.352;2023-02-14T07:01:17;103346.63;;;11.74;48.39
31044;BME280;17710;52.520;13.352;2023-02-14T07:03:43;103337.72;;;11.56;48.92
31044;BME280;17710;52.520;13.352;2023-02-14T07:06:10;103337.75;;;11.72;48.22
31044;BME280;17710;52.520;13.352;2023-02-14T07:08:36;103335.09;;;11.63;48.64
31044;BME280;17710;52.520;13.352;2023-02-14T07:11:03;103335.09;;;11.72;48.30
31044;BME280;17710;52.520;13.352;2023-02-14T07:13:29;103337.75;;;11.53;49.05
31044;BME280;17710;52.520;13.352;2023-02-14T07:15:57;103333.31;;;11.52;48.75
31044;BME280;17710;52.520;13.352;2023-02-14T07:18:23;103337.69;;;11.32;49.52
31044;BME280;17710;52.520;13.352;2023-02-14T07:20:50;103334.22;;;11.65;48.52
31044;BME280;17710;52.520;13.352;2023-02-14T07:23:17;103336.91;;;11.77;48.15
31044;BME280;17710;52.520;13.352;2023-02-14T07:25:43;103336.00;;;11.68;48.29
31044;BME280;17710;52.520;13.352;2023-02-14T07:28:10;103328.06;;;11.62;48.68
31044;BME280;17710;52.520;13.352;2023-02-14T07:30:36;103337.78;;;11.78;48.37
31044;BME280;17710;52.520;13.352;2023-02-14T07:33:04;103338.69;;;11.81;47.92
31044;BME280;17710;52.520;13.352;2023-02-14T07:35:30;103341.34;;;11.81;47.85
31044;BME280;17710;52.520;13.352;2023-02-14T07:37:57;103341.34;;;11.92;47.82
31044;BME280;17710;52.520;13.352;2023-02-14T07:40:23;103339.56;;;12.06;47.82
31044;BME280;17710;52.520;13.352;2023-02-14T07:42:53;103344.88;;;12.00;48.06
31044;BME280;17710;52.520;13.352;2023-02-14T07:45:21;103335.13;;;12.17;47.92
31044;BME280;17710;52.520;13.352;2023-02-14T07:47:48;103332.50;;;12.20;47.77
31044;BME280;17710;52.520;13.352;2023-02-14T07:50:16;103329.84;;;12.19;47.73
31044;BME280;17710;52.520;13.352;2023-02-14T07:52:43;103330.69;;;12.31;47.39
31044;BME280;17710;52.520;13.352;2023-02-14T07:55:10;103322.78;;;12.07;47.69
31044;BME280;17710;52.520;13.352;2023-02-14T07:57:37;103326.25;;;12.43;47.23
31044;BME280;17710;52.520;13.352;2023-02-14T08:00:05;103328.91;;;12.43;46.76
31044;BME280;17710;52.520;13.352;2023-02-14T08:02:34;103327.13;;;12.37;46.70
31044;BME280;17710;52.520;13.352;2023-02-14T08:05:01;103327.06;;;12.72;46.22
31044;BME280;17710;52.520;13.352;2023-02-14T08:07:37;103330.63;;;12.56;46.46
31044;BME280;17710;52.520;13.352;2023-02-14T08:10:12;103330.72;;;12.19;46.78
31044;BME280;17710;52.520;13.352;2023-02-14T08:12:41;103327.09;;;12.58;46.37
31044;BME280;17710;52.520;13.352;2023-02-14T08:15:29;103329.72;;;12.64;45.87
31044;BME280;17710;52.520;13.352;2023-02-14T08:18:14;103341.19;;;12.71;46.01
31044;BME280;17710;52.520;13.352;2023-02-14T08:20:41;103329.72;;;12.61;45.79
31044;BME280;17710;52.520;13.352;2023-02-14T08:23:10;103336.75;;;12.77;45.75
31044;BME280;17710;52.520;13.352;2023-02-14T08:25:37;103336.69;;;12.97;45.64
31044;BME280;17710;52.520;13.352;2023-02-14T08:28:03;103344.69;;;12.85;45.90
31044;BME280;17710;52.520;13.352;2023-02-14T08:30:30;103346.47;;;12.85;45.49
31044;BME280;17710;52.520;13.352;2023-02-14T08:32:56;103349.94;;;12.94;45.60
31044;BME280;17710;52.520;13.352;2023-02-14T08:35:23;103354.47;;;12.65;45.81
31044;BME280;17710;52.520;13.352;2023-02-14T08:37:49;103358.00;;;12.62;46.05
31044;BME280;17710;52.520;13.352;2023-02-14T08:40:20;103350.91;;;12.75;45.60
31044;BME280;17710;52.520;13.352;2023-02-14T08:42:47;103356.97;;;13.07;45.03
31044;BME280;17710;52.520;13.352;2023-02-14T08:45:13;103359.66;;;13.06;44.83
31044;BME280;17710;52.520;13.352;2023-02-14T08:47:40;103365.81;;;13.08;45.06
31044;BME280;17710;52.520;13.352;2023-02-14T08:50:09;103362.22;;;13.32;44.28
31044;BME280;17710;52.520;13.352;2023-02-14T08:52:37;103356.00;;;13.31;44.58
31044;BME280;17710;52.520;13.352;2023-02-14T08:55:04;103363.16;;;13.17;44.72
31044;BME280;17710;52.520;13.352;2023-02-14T08:57:32;103364.03;;;13.19;44.35
31044;BME280;17710;52.520;13.352;2023-02-14T08:59:58;103356.81;;;13.41;44.05
31044;BME280;17710;52.520;13.352;2023-02-14T09:02:25;103368.41;;;13.26;44.18
31044;BME280;17710;52.520;13.352;2023-02-14T09:04:51;103362.97;;;13.50;43.94
31044;BME280;17710;52.520;13.352;2023-02-14T09:07:18;103365.72;;;13.37;44.11
31044;BME280;17710;52.520;13.352;2023-02-14T09:09:45;103365.50;;;13.67;43.54
31044;BME280;17710;52.520;13.352;2023-02-14T09:12:11;103365.63;;;13.50;43.64
31044;BME280;17710;52.520;13.352;2023-02-14T09:14:40;103364.63;;;13.68;43.32
31044;BME280;17710;52.520;13.352;2023-02-14T09:17:11;103362.78;;;13.76;43.49
31044;BME280;17710;52.520;13.352;2023-02-14T09:19:38;103365.50;;;13.67;43.64
31044;BME280;17710;52.520;13.352;2023-02-14T09:22:07;103367.38;;;13.53;44.13
31044;BME280;17710;52.520;13.352;2023-02-14T09:24:35;103363.16;;;13.08;44.73
31044;BME280;17710;52.520;13.352;2023-02-14T09:27:03;103372.84;;;13.20;44.68
31044;BME280;17710;52.520;13.352;2023-02-14T09:29:29;103369.25;;;13.33;44.26
31044;BME280;17710;52.520;13.352;2023-02-14T09:31:59;103362.97;;;13.52;44.08
31044;BME280;17710;52.520;13.352;2023-02-14T09:34:26;103361.16;;;13.55;43.95
31044;BME280;17710;52.520;13.352;2023-02-14T09:36:53;103359.53;;;13.30;44.42
31044;BME280;17710;52.520;13.352;2023-02-14T09:39:21;103363.16;;;13.11;44.40
31044;BME280;17710;52.520;13.352;2023-02-14T09:42:07;103364.03;;;13.11;44.78
31044;BME280;17710;52.520;13.352;2023-02-14T09:44:36;103361.13;;;13.62;43.92
31044;BME280;17710;52.520;13.352;2023-02-14T09:47:15;103362.84;;;13.70;43.91
31044;BME280;17710;52.520;13.352;2023-02-14T09:49:44;103370.09;;;13.45;44.23
31044;BME280;17710;52.520;13.352;2023-02-14T09:52:13;103370.94;;;13.47;43.83
31044;BME280;17710;52.520;13.352;2023-02-14T09:54:42;103364.72;;;13.53;43.82
31044;BME280;17710;52.520;13.352;2023-02-14T09:57:19;103368.91;;;13.89;43.38
31044;BME280;17710;52.520;13.352;2023-02-14T09:59:52;103372.41;;;13.92;43.40
31044;BME280;17710;52.520;13.352;2023-02-14T10:02:32;103367.97;;;13.93;42.98
31044;BME280;17710;52.520;13.352;2023-02-14T10:05:12;103370.81;;;13.69;43.32
31044;BME280;17710;52.520;13.352;2023-02-14T10:07:52;103370.09;;;13.45;43.32
31044;BME280;17710;52.520;13.352;2023-02-14T10:10:25;103375.94;;;13.91;42.84
31044;BME280;17710;52.520;13.352;2023-02-14T10:12:55;103367.34;;;13.57;43.48
31044;BME280;17710;52.520;13.352;2023-02-14T10:15:27;103368.94;;;13.81;43.23
31044;BME280;17710;52.520;13.352;2023-02-14T10:17:57;103368.41;;;13.31;43.80
31044;BME280;17710;52.520;13.352;2023-02-14T10:20:29;103369.34;;;13.18;43.86
31044;BME280;17710;52.520;13.352;2023-02-14T10:23:02;103363.81;;;13.52;43.74
31044;BME280;17710;52.520;13.352;2023-02-14T10:25:35;103370.03;;;13.53;43.61
31044;BME280;17710;52.520;13.352;2023-02-14T10:28:08;103361.25;;;13.45;43.72
31044;BME280;17710;52.520;13.352;2023-02-14T10:30:37;103357.63;;;13.55;43.48
31044;BME280;17710;52.520;13.352;2023-02-14T10:33:11;103354.13;;;13.48;43.33
31044;BME280;17710;52.520;13.352;2023-02-14T10:36:01;103363.09;;;13.32;43.87
31044;BME280;17710;52.520;13.352;2023-02-14T10:38:38;103348.13;;;13.18;43.98
31044;BME280;17710;52.520;13.352;2023-02-14T10:41:34;103350.50;;;13.60;43.31
31044;BME280;17710;52.520;13.352;2023-02-14T10:44:30;103341.88;;;13.23;43.42
31044;BME280;17710;52.520;13.352;2023-02-14T10:47:10;103348.13;;;13.18;43.76
31044;BME280;17710;52.520;13.352;2023-02-14T10:49:55;103351.47;;;13.47;43.23
31044;BME280;17710;52.520;13.352;2023-02-14T10:52:42;103353.03;;;13.78;42.90
31044;BME280;17710;52.520;13.352;2023-02-14T10:55:19;103350.47;;;13.65;42.91
31044;BME280;17710;52.520;13.352;2023-02-14T10:57:50;103343.63;;;13.32;43.63
31044;BME280;17710;52.520;13.352;2023-02-14T11:00:25;103343.41;;;13.64;43.33
31044;BME280;17710;52.520;13.352;2023-02-14T11:03:10;103336.38;;;13.56;43.30
31044;BME280;17710;52.520;13.352;2023-02-14T11:05:53;103342.69;;;13.33;43.53
31044;BME280;17710;52.520;13.352;2023-02-14T11:08:25;103338.97;;;13.61;43.37
31044;BME280;17710;52.520;13.352;2023-02-14T11:10:53;103341.63;;;13.60;43.34
31044;BME280;17710;52.520;13.352;2023-02-14T11:13:32;103341.72;;;13.46;43.39
31044;BME280;17710;52.520;13.352;2023-02-14T11:16:01;103336.28;;;13.67;43.22
31044;BME280;17710;52.520;13.352;2023-02-14T11:18:28;103337.06;;;13.83;42.43
31044;BME280;17710;52.520;13.352;2023-02-14T11:21:07;103329.94;;;13.85;42.66
31044;BME280;17710;52.520;13.352;2023-02-14T11:23:38;103329.97;;;13.80;43.04
31044;BME280;17710;52.520;13.352;2023-02-14T11:26:08;103334.34;;;13.90;42.50
31044;BME280;17710;52.520;13.352;2023-02-14T11:28:47;103330.94;;;13.70;42.94
31044;BME280;17710;52.520;13.352;2023-02-14T11:31:23;103326.66;;;13.49;43.41
31044;BME280;17710;52.520;13.352;2023-02-14T11:33:50;103332.06;;;13.37;43.76
31044;BME280;17710;52.520;13.352;2023-02-14T11:36:20;103326.75;;;13.33;44.00
31044;BME280;17710;52.520;13.352;2023-02-14T11:38:55;103330.38;;;13.26;44.43
31044;BME280;17710;52.520;13.352;2023-02-14T11:41:23;103328.50;;;13.40;43.77
31044;BME280;17710;52.520;13.352;2023-02-14T11:43:50;103328.66;;;13.15;44.09
31044;BME280;17710;52.520;13.352;2023-02-14T11:46:24;103325.78;;;13.49;43.56
31044;BME280;17710;52.520;13.352;2023-02-14T11:48:56;103317.94;;;13.31;44.14
31044;BME280;17710;52.520;13.352;2023-02-14T11:51:30;103316.09;;;13.45;44.02
31044;BME280;17710;52.520;13.352;2023-02-14T11:53:59;103322.34;;;13.35;43.62
31044;BME280;17710;52.520;13.352;2023-02-14T11:56:54;103317.91;;;13.37;43.52
31044;BME280;17710;52.520;13.352;2023-02-14T11:59:29;103314.41;;;13.32;43.84
31044;BME280;17710;52.520;13.352;2023-02-14T12:01:59;103316.19;;;13.28;44.07
31044;BME280;17710;52.520;13.352;2023-02-14T12:04:32;103307.31;;;13.32;43.90
31044;BME280;17710;52.520;13.352;2023-02-14T12:07:17;103303.66;;;13.47;43.62
31044;BME280;17710;52.520;13.352;2023-02-14T12:09:45;103291.00;;;13.82;42.96
31044;BME280;17710;52.520;13.352;2023-02-14T12:12:18;103292.69;;;13.89;42.75
31044;BME280;17710;52.520;13.352;2023-02-14T12:14:45;103293.53;;;13.98;42.66
31044;BME280;17710;52.520;13.352;2023-02-14T12:17:22;103295.16;;;14.11;42.20
31044;BME280;17710;52.520;13.352;2023-02-14T12:19:54;103284.00;;;13.69;42.98
31044;BME280;17710;52.520;13.352;2023-02-14T12:22:28;103278.75;;;13.65;43.21
31044;BME280;17710;52.520;13.352;2023-02-14T12:25:02;103281.31;;;13.75;43.03
31044;BME280;17710;52.520;13.352;2023-02-14T12:27:39;103282.19;;;13.73;43.01
31044;BME280;17710;52.520;13.352;2023-02-14T12:30:12;103273.50;;;13.57;43.44
31044;BME280;17710;52.520;13.352;2023-02-14T12:32:45;103261.94;;;13.60;43.32
31044;BME280;17710;52.520;13.352;2023-02-14T12:35:13;103261.41;;;14.16;42.44
31044;BME280;17710;52.520;13.352;2023-02-14T12:37:49;103256.44;;;13.84;42.14
31044;BME280;17710;52.520;13.352;2023-02-14T12:40:20;103250.09;;;13.95;42.43
31044;BME280;17710;52.520;13.352;2023-02-14T12:43:14;103244.13;;;13.72;42.75
31044;BME280;17710;52.520;13.352;2023-02-14T12:46:06;103240.44;;;13.87;42.64
31044;BME280;17710;52.520;13.352;2023-02-14T12:48:54;103235.19;;;13.79;43.13
31044;BME280;17710;52.520;13.352;2023-02-14T12:51:26;103240.56;;;13.76;43.35
31044;BME280;17710;52.520;13.352;2023-02-14T12:54:03;103229.06;;;13.73;42.88
31044;BME280;17710;52.520;13.352;2023-02-14T12:56:41;103241.03;;;13.17;44.30
31044;BME280;17710;52.520;13.352;2023-02-14T12:59:22;103230.03;;;13.63;43.19
31044;BME280;17710;52.520;13.352;2023-02-14T13:02:12;103228.97;;;13.83;42.68
31044;BME280;17710;52.520;13.352;2023-02-14T13:05:00;103221.06;;;13.77;42.70
31044;BME280;17710;52.520;13.352;2023-02-14T13:07:41;103223.03;;;13.55;43.40